SDM6635 UNKL-ZYHB
Flight info
| Callsign | SDM6635 |
|---|---|
| Flight time | 3h 22m |
| Altitude | 37000 |
| Route | ATREG2F ATREG R497 RO A817 NERKA B478 KTN A91 AGINO A810 TELOK/K0787F331 A345 MANLI/K0789S1010 A345 HLD B451 ONINA ONI18A |
| Aircraft | A319/M-SDE3FGHIRWY/LB1 |
Departure
| Time | 2026-04-25 17:52 |
|---|---|
| Airport | Krasnoyarsk International Airport (UNKL) |
Arrival
| Time | 2026-04-25 21:14 |
|---|---|
| Airport | Harbin Taiping International Airport (ZYHB) |
| Time | Latitude | Longitude | Altitude | Speed | Heading |
|---|---|---|---|---|---|
| 2026-04-25 17:19 | 56.17947 | 92.48543 | 957 ft | 0 kts | 23° |
| 2026-04-25 17:40 | 56.17946 | 92.48542 | 957 ft | 2 kts | 23° |
| 2026-04-25 17:41 | 56.17923 | 92.48523 | 953 ft | 4 kts | 31° |
| 2026-04-25 17:41 | 56.17901 | 92.48496 | 955 ft | 3 kts | 38° |
| 2026-04-25 17:41 | 56.17884 | 92.48462 | 954 ft | 4 kts | 76° |
| 2026-04-25 17:41 | 56.17885 | 92.48416 | 953 ft | 4 kts | 111° |
| 2026-04-25 17:42 | 56.17890 | 92.48393 | 953 ft | 1 kts | 109° |
| 2026-04-25 17:44 | 56.17889 | 92.48401 | 953 ft | 2 kts | 109° |
| 2026-04-25 17:44 | 56.17880 | 92.48438 | 954 ft | 4 kts | 114° |
| 2026-04-25 17:45 | 56.17858 | 92.48468 | 955 ft | 5 kts | 164° |
| 2026-04-25 17:45 | 56.17830 | 92.48456 | 954 ft | 8 kts | 203° |
| 2026-04-25 17:45 | 56.17753 | 92.48402 | 957 ft | 7 kts | 186° |
| 2026-04-25 17:45 | 56.17725 | 92.48470 | 955 ft | 9 kts | 111° |
| 2026-04-25 17:46 | 56.17694 | 92.48605 | 957 ft | 15 kts | 114° |
| 2026-04-25 17:46 | 56.17643 | 92.48806 | 955 ft | 20 kts | 115° |
| 2026-04-25 17:46 | 56.17583 | 92.49066 | 955 ft | 23 kts | 110° |
| 2026-04-25 17:46 | 56.17521 | 92.49333 | 955 ft | 23 kts | 113° |
| 2026-04-25 17:47 | 56.17458 | 92.49597 | 957 ft | 23 kts | 112° |
| 2026-04-25 17:47 | 56.17396 | 92.49858 | 956 ft | 23 kts | 113° |
| 2026-04-25 17:47 | 56.17334 | 92.50118 | 955 ft | 23 kts | 112° |
| 2026-04-25 17:47 | 56.17272 | 92.50378 | 957 ft | 23 kts | 113° |
| 2026-04-25 17:48 | 56.17149 | 92.50892 | 955 ft | 22 kts | 113° |
| 2026-04-25 17:48 | 56.17088 | 92.51148 | 957 ft | 22 kts | 113° |
| 2026-04-25 17:48 | 56.17028 | 92.51403 | 957 ft | 22 kts | 113° |
| 2026-04-25 17:49 | 56.16967 | 92.51659 | 955 ft | 22 kts | 113° |
| 2026-04-25 17:49 | 56.16909 | 92.51902 | 955 ft | 15 kts | 113° |
| 2026-04-25 17:49 | 56.16876 | 92.52001 | 954 ft | 8 kts | 141° |
| 2026-04-25 17:49 | 56.16819 | 92.52024 | 955 ft | 9 kts | 174° |
| 2026-04-25 17:50 | 56.16753 | 92.52035 | 954 ft | 10 kts | 174° |
| 2026-04-25 17:50 | 56.16678 | 92.52038 | 955 ft | 9 kts | 189° |
| 2026-04-25 17:50 | 56.16659 | 92.51992 | 954 ft | 4 kts | 275° |
| 2026-04-25 17:50 | 56.16663 | 92.51977 | 954 ft | 0 kts | 292° |
| 2026-04-25 17:51 | 56.16665 | 92.51969 | 955 ft | 4 kts | 292° |
| 2026-04-25 17:51 | 56.16768 | 92.51539 | 953 ft | 75 kts | 293° |
| 2026-04-25 17:51 | 56.17061 | 92.50307 | 952 ft | 138 kts | 293° |
| 2026-04-25 17:51 | 56.17498 | 92.48470 | 1136 ft | 168 kts | 292° |
| 2026-04-25 17:52 | 56.17959 | 92.46526 | 1765 ft | 171 kts | 292° |
| 2026-04-25 17:52 | 56.18269 | 92.45217 | 2208 ft | 174 kts | 290° |
| 2026-04-25 17:52 | 56.18904 | 92.42531 | 3032 ft | 175 kts | 289° |
| 2026-04-25 17:52 | 56.19358 | 92.40493 | 3619 ft | 176 kts | 282° |
| 2026-04-25 17:53 | 56.19332 | 92.38348 | 4142 ft | 175 kts | 250° |
| 2026-04-25 17:53 | 56.18589 | 92.36524 | 4395 ft | 195 kts | 214° |
| 2026-04-25 17:53 | 56.17210 | 92.35903 | 4561 ft | 223 kts | 172° |
| 2026-04-25 17:53 | 56.15760 | 92.37222 | 4865 ft | 251 kts | 138° |
| 2026-04-25 17:54 | 56.14562 | 92.39679 | 5375 ft | 270 kts | 128° |
| 2026-04-25 17:54 | 56.13479 | 92.42494 | 6115 ft | 278 kts | 124° |
| 2026-04-25 17:54 | 56.12418 | 92.45447 | 6864 ft | 285 kts | 124° |
| 2026-04-25 17:54 | 56.11328 | 92.48460 | 7642 ft | 291 kts | 124° |
| 2026-04-25 17:55 | 56.10198 | 92.51500 | 8458 ft | 295 kts | 125° |
| 2026-04-25 17:55 | 56.09030 | 92.54554 | 9262 ft | 299 kts | 125° |
| 2026-04-25 17:55 | 56.07831 | 92.57619 | 10078 ft | 303 kts | 126° |
| 2026-04-25 17:55 | 56.06589 | 92.60753 | 10592 ft | 318 kts | 126° |
| 2026-04-25 17:56 | 56.05262 | 92.64087 | 10816 ft | 340 kts | 126° |
| 2026-04-25 17:56 | 56.03857 | 92.67606 | 11329 ft | 351 kts | 125° |
| 2026-04-25 17:56 | 56.02425 | 92.71188 | 11988 ft | 357 kts | 125° |
| 2026-04-25 17:56 | 56.00969 | 92.74831 | 12667 ft | 363 kts | 125° |
| 2026-04-25 17:57 | 55.99490 | 92.78523 | 13348 ft | 368 kts | 124° |
| 2026-04-25 17:57 | 55.97988 | 92.82266 | 14000 ft | 373 kts | 124° |
| 2026-04-25 17:57 | 55.96445 | 92.86107 | 14602 ft | 378 kts | 124° |
| 2026-04-25 17:57 | 55.95946 | 92.87347 | 14789 ft | 380 kts | 124° |
| 2026-04-25 17:58 | 55.93356 | 92.93780 | 15774 ft | 388 kts | 124° |
| 2026-04-25 17:58 | 55.91752 | 92.97759 | 16354 ft | 392 kts | 124° |
| 2026-04-25 17:58 | 55.90149 | 93.01727 | 16928 ft | 397 kts | 124° |
| 2026-04-25 17:58 | 55.88526 | 93.05742 | 17491 ft | 402 kts | 124° |
| 2026-04-25 17:59 | 55.86883 | 93.09801 | 18042 ft | 406 kts | 124° |
| 2026-04-25 17:59 | 55.85218 | 93.13906 | 18596 ft | 411 kts | 124° |
| 2026-04-25 17:59 | 55.83536 | 93.18044 | 19093 ft | 415 kts | 124° |
| 2026-04-25 17:59 | 55.81830 | 93.22226 | 19616 ft | 419 kts | 124° |
| 2026-04-25 18:00 | 55.80110 | 93.26426 | 20145 ft | 422 kts | 124° |
| 2026-04-25 18:00 | 55.78374 | 93.30656 | 20660 ft | 425 kts | 124° |
| 2026-04-25 18:00 | 55.76622 | 93.34923 | 21181 ft | 429 kts | 124° |
| 2026-04-25 18:00 | 55.74871 | 93.39226 | 21693 ft | 432 kts | 122° |
| 2026-04-25 18:01 | 55.73335 | 93.43826 | 22189 ft | 434 kts | 116° |
| 2026-04-25 18:01 | 55.71855 | 93.48531 | 22685 ft | 438 kts | 117° |
| 2026-04-25 18:01 | 55.70341 | 93.53321 | 23183 ft | 442 kts | 117° |
| 2026-04-25 18:01 | 55.68833 | 93.58078 | 23657 ft | 445 kts | 117° |
| 2026-04-25 18:02 | 55.67328 | 93.62820 | 24063 ft | 448 kts | 117° |
| 2026-04-25 18:02 | 55.65774 | 93.67702 | 24473 ft | 451 kts | 117° |
| 2026-04-25 18:02 | 55.64226 | 93.72548 | 24879 ft | 454 kts | 117° |
| 2026-04-25 18:02 | 55.62663 | 93.77429 | 25272 ft | 456 kts | 117° |
| 2026-04-25 18:03 | 55.61094 | 93.82322 | 25684 ft | 459 kts | 117° |
| 2026-04-25 18:03 | 55.59514 | 93.87246 | 26080 ft | 461 kts | 117° |
| 2026-04-25 18:03 | 55.57922 | 93.92187 | 26461 ft | 463 kts | 117° |
| 2026-04-25 18:03 | 55.56322 | 93.97143 | 26841 ft | 466 kts | 117° |
| 2026-04-25 18:04 | 55.54710 | 94.02128 | 27220 ft | 468 kts | 117° |
| 2026-04-25 18:04 | 55.53090 | 94.07122 | 27600 ft | 471 kts | 116° |
| 2026-04-25 18:04 | 55.51456 | 94.12150 | 27979 ft | 473 kts | 116° |
| 2026-04-25 18:04 | 55.49816 | 94.17202 | 28354 ft | 476 kts | 116° |
| 2026-04-25 18:05 | 55.48167 | 94.22275 | 28726 ft | 478 kts | 116° |
| 2026-04-25 18:05 | 55.46508 | 94.27362 | 29093 ft | 481 kts | 116° |
| 2026-04-25 18:05 | 55.44831 | 94.32485 | 29445 ft | 483 kts | 116° |
| 2026-04-25 18:05 | 55.43146 | 94.37623 | 29791 ft | 486 kts | 116° |
| 2026-04-25 18:06 | 55.41444 | 94.42797 | 30132 ft | 488 kts | 116° |
| 2026-04-25 18:06 | 55.39715 | 94.48042 | 30450 ft | 491 kts | 116° |
| 2026-04-25 18:06 | 55.37995 | 94.53241 | 30734 ft | 493 kts | 116° |
| 2026-04-25 18:06 | 55.36263 | 94.58456 | 31019 ft | 495 kts | 116° |
| 2026-04-25 18:07 | 55.34524 | 94.63688 | 31299 ft | 497 kts | 116° |
| 2026-04-25 18:07 | 55.32782 | 94.68933 | 31634 ft | 497 kts | 116° |
| 2026-04-25 18:07 | 55.31039 | 94.74170 | 32052 ft | 495 kts | 116° |
| 2026-04-25 18:07 | 55.29307 | 94.79364 | 32480 ft | 493 kts | 116° |
| 2026-04-25 18:08 | 55.27737 | 94.84687 | 32886 ft | 487 kts | 108° |
| 2026-04-25 18:08 | 55.26607 | 94.90233 | 33283 ft | 480 kts | 99° |
| 2026-04-25 18:08 | 55.25933 | 94.95909 | 33687 ft | 472 kts | 91° |
| 2026-04-25 18:08 | 55.25548 | 95.01596 | 34092 ft | 469 kts | 90° |
| 2026-04-25 18:09 | 55.25160 | 95.07266 | 34472 ft | 468 kts | 90° |
| 2026-04-25 18:09 | 55.24761 | 95.12928 | 34791 ft | 468 kts | 91° |
| 2026-04-25 18:09 | 55.24353 | 95.18580 | 35091 ft | 467 kts | 91° |
| 2026-04-25 18:10 | 55.23524 | 95.29880 | 35642 ft | 467 kts | 91° |
| 2026-04-25 18:10 | 55.23108 | 95.35520 | 35889 ft | 467 kts | 92° |
| 2026-04-25 18:10 | 55.22690 | 95.41167 | 36133 ft | 467 kts | 92° |
| 2026-04-25 18:10 | 55.22271 | 95.46809 | 36370 ft | 468 kts | 92° |
| 2026-04-25 18:11 | 55.21851 | 95.52463 | 36603 ft | 468 kts | 92° |
| 2026-04-25 18:11 | 55.21434 | 95.58109 | 36826 ft | 467 kts | 92° |
| 2026-04-25 18:11 | 55.21016 | 95.63745 | 37040 ft | 467 kts | 92° |
| 2026-04-25 18:11 | 55.20593 | 95.69394 | 37233 ft | 468 kts | 92° |
| 2026-04-25 18:12 | 55.20163 | 95.75036 | 37295 ft | 467 kts | 92° |
| 2026-04-25 18:12 | 55.19287 | 95.86359 | 37294 ft | 466 kts | 92° |
| 2026-04-25 18:13 | 55.18415 | 95.97588 | 37298 ft | 466 kts | 92° |
| 2026-04-25 18:13 | 55.17532 | 96.08832 | 37302 ft | 466 kts | 92° |
| 2026-04-25 18:14 | 55.16331 | 96.23851 | 37311 ft | 467 kts | 92° |
| 2026-04-25 18:14 | 55.15268 | 96.36916 | 37323 ft | 467 kts | 93° |
| 2026-04-25 18:15 | 55.14341 | 96.48160 | 37330 ft | 467 kts | 93° |
| 2026-04-25 18:15 | 55.13559 | 96.57571 | 37336 ft | 467 kts | 93° |
| 2026-04-25 18:16 | 55.12620 | 96.68817 | 37331 ft | 467 kts | 93° |
| 2026-04-25 18:17 | 55.11192 | 96.85671 | 37335 ft | 468 kts | 93° |
| 2026-04-25 18:17 | 55.10226 | 96.96919 | 37336 ft | 468 kts | 93° |
| 2026-04-25 18:18 | 55.09237 | 97.08159 | 37337 ft | 469 kts | 93° |
| 2026-04-25 18:18 | 55.08207 | 97.19410 | 37332 ft | 470 kts | 94° |
| 2026-04-25 18:19 | 55.07132 | 97.30662 | 37338 ft | 470 kts | 94° |
| 2026-04-25 18:19 | 55.06039 | 97.41901 | 37343 ft | 470 kts | 94° |
| 2026-04-25 18:20 | 55.04945 | 97.53155 | 37344 ft | 470 kts | 94° |
| 2026-04-25 18:20 | 55.03849 | 97.64401 | 37347 ft | 470 kts | 94° |
| 2026-04-25 18:21 | 55.02740 | 97.75624 | 37347 ft | 470 kts | 94° |
| 2026-04-25 18:21 | 55.01612 | 97.86920 | 37351 ft | 470 kts | 94° |
| 2026-04-25 18:22 | 55.00478 | 97.98136 | 37350 ft | 470 kts | 94° |
| 2026-04-25 18:22 | 54.99337 | 98.09335 | 37355 ft | 470 kts | 95° |
| 2026-04-25 18:23 | 54.98187 | 98.20521 | 37353 ft | 470 kts | 95° |
| 2026-04-25 18:23 | 54.97018 | 98.31788 | 37349 ft | 469 kts | 95° |
| 2026-04-25 18:24 | 54.95846 | 98.42962 | 37347 ft | 469 kts | 95° |
| 2026-04-25 18:24 | 54.94673 | 98.54119 | 37341 ft | 469 kts | 95° |
| 2026-04-25 18:25 | 54.93482 | 98.65269 | 37339 ft | 469 kts | 95° |
| 2026-04-25 18:25 | 54.92267 | 98.76478 | 37335 ft | 469 kts | 95° |
| 2026-04-25 18:26 | 54.91058 | 98.87596 | 37331 ft | 468 kts | 95° |
| 2026-04-25 18:26 | 54.89836 | 98.98717 | 37335 ft | 468 kts | 95° |
| 2026-04-25 18:27 | 54.88593 | 99.09837 | 37325 ft | 469 kts | 96° |
| 2026-04-25 18:27 | 54.87262 | 99.20929 | 37325 ft | 469 kts | 96° |
| 2026-04-25 18:28 | 54.85885 | 99.32014 | 37325 ft | 470 kts | 97° |
| 2026-04-25 18:28 | 54.84503 | 99.43092 | 37325 ft | 470 kts | 97° |
| 2026-04-25 18:29 | 54.82449 | 99.59713 | 37321 ft | 470 kts | 97° |
| 2026-04-25 18:30 | 54.79660 | 99.81873 | 37326 ft | 471 kts | 97° |
| 2026-04-25 18:30 | 54.78245 | 99.92944 | 37322 ft | 471 kts | 97° |
| 2026-04-25 18:31 | 54.76812 | 100.04003 | 37323 ft | 471 kts | 97° |
| 2026-04-25 18:31 | 54.75372 | 100.15063 | 37323 ft | 471 kts | 97° |
| 2026-04-25 18:32 | 54.73934 | 100.26110 | 37317 ft | 470 kts | 97° |
| 2026-04-25 18:32 | 54.72488 | 100.37154 | 37316 ft | 470 kts | 98° |
| 2026-04-25 18:33 | 54.71024 | 100.48180 | 37311 ft | 471 kts | 98° |
| 2026-04-25 18:33 | 54.69544 | 100.59273 | 37310 ft | 471 kts | 98° |
| 2026-04-25 18:34 | 54.68063 | 100.70301 | 37312 ft | 471 kts | 98° |
| 2026-04-25 18:34 | 54.66574 | 100.81306 | 37313 ft | 470 kts | 98° |
| 2026-04-25 18:35 | 54.65075 | 100.92301 | 37310 ft | 471 kts | 98° |
| 2026-04-25 18:35 | 54.63565 | 101.03301 | 37312 ft | 471 kts | 99° |
| 2026-04-25 18:36 | 54.62034 | 101.14285 | 37315 ft | 470 kts | 99° |
| 2026-04-25 18:36 | 54.60493 | 101.25253 | 37318 ft | 470 kts | 99° |
| 2026-04-25 18:37 | 54.58948 | 101.36208 | 37322 ft | 470 kts | 99° |
| 2026-04-25 18:37 | 54.57393 | 101.47230 | 37323 ft | 470 kts | 99° |
| 2026-04-25 18:38 | 54.55834 | 101.58165 | 37320 ft | 470 kts | 99° |
| 2026-04-25 18:38 | 54.54266 | 101.69092 | 37327 ft | 470 kts | 99° |
| 2026-04-25 18:39 | 54.52685 | 101.80016 | 37331 ft | 470 kts | 100° |
| 2026-04-25 18:39 | 54.51086 | 101.90927 | 37334 ft | 470 kts | 100° |
| 2026-04-25 18:40 | 54.49490 | 102.01842 | 37330 ft | 470 kts | 100° |
| 2026-04-25 18:40 | 54.47883 | 102.12752 | 37325 ft | 471 kts | 100° |
| 2026-04-25 18:41 | 54.46256 | 102.23641 | 37321 ft | 471 kts | 100° |
| 2026-04-25 18:41 | 54.44625 | 102.34536 | 37332 ft | 470 kts | 100° |
| 2026-04-25 18:42 | 54.43534 | 102.41813 | 37330 ft | 470 kts | 100° |
| 2026-04-25 18:42 | 54.41349 | 102.56278 | 37331 ft | 470 kts | 101° |
| 2026-04-25 18:43 | 54.39680 | 102.67120 | 37321 ft | 470 kts | 101° |
| 2026-04-25 18:43 | 54.38004 | 102.77951 | 37320 ft | 469 kts | 101° |
| 2026-04-25 18:44 | 54.36336 | 102.88777 | 37316 ft | 469 kts | 101° |
| 2026-04-25 18:44 | 54.34701 | 102.99608 | 37314 ft | 469 kts | 101° |
| 2026-04-25 18:45 | 54.33051 | 103.10416 | 37314 ft | 469 kts | 101° |
| 2026-04-25 18:45 | 54.31644 | 103.19463 | 37311 ft | 470 kts | 101° |
| 2026-04-25 18:46 | 54.29873 | 103.30320 | 37318 ft | 470 kts | 103° |
| 2026-04-25 18:46 | 54.27975 | 103.41045 | 37314 ft | 471 kts | 103° |
| 2026-04-25 18:47 | 54.26050 | 103.51753 | 37308 ft | 471 kts | 103° |
| 2026-04-25 18:47 | 54.24147 | 103.62467 | 37312 ft | 471 kts | 103° |
| 2026-04-25 18:48 | 54.22246 | 103.73174 | 37308 ft | 471 kts | 103° |
| 2026-04-25 18:48 | 54.20333 | 103.83877 | 37313 ft | 471 kts | 103° |
| 2026-04-25 18:49 | 54.18412 | 103.94584 | 37316 ft | 471 kts | 104° |
| 2026-04-25 18:49 | 54.16474 | 104.05275 | 37311 ft | 471 kts | 104° |
| 2026-04-25 18:50 | 54.14536 | 104.15945 | 37307 ft | 471 kts | 104° |
| 2026-04-25 18:50 | 54.12579 | 104.26621 | 37308 ft | 471 kts | 104° |
| 2026-04-25 18:51 | 54.10946 | 104.35467 | 37312 ft | 471 kts | 104° |
| 2026-04-25 18:51 | 54.08637 | 104.47886 | 37307 ft | 470 kts | 104° |
| 2026-04-25 18:52 | 54.06668 | 104.58500 | 37308 ft | 470 kts | 104° |
| 2026-04-25 18:52 | 54.04694 | 104.69102 | 37301 ft | 470 kts | 104° |
| 2026-04-25 18:53 | 54.02681 | 104.79744 | 37303 ft | 470 kts | 105° |
| 2026-04-25 18:53 | 54.00672 | 104.90312 | 37302 ft | 470 kts | 105° |
| 2026-04-25 18:54 | 53.97654 | 105.06156 | 37304 ft | 470 kts | 105° |
| 2026-04-25 18:55 | 53.95632 | 105.16719 | 37305 ft | 470 kts | 105° |
| 2026-04-25 18:55 | 53.93603 | 105.27254 | 37304 ft | 470 kts | 105° |
| 2026-04-25 18:56 | 53.91556 | 105.37777 | 37299 ft | 470 kts | 105° |
| 2026-04-25 18:56 | 53.89510 | 105.48301 | 37306 ft | 470 kts | 105° |
| 2026-04-25 18:57 | 53.87459 | 105.58820 | 37307 ft | 470 kts | 105° |
| 2026-04-25 18:57 | 53.85376 | 105.69335 | 37307 ft | 471 kts | 106° |
| 2026-04-25 18:58 | 53.83286 | 105.79830 | 37315 ft | 470 kts | 106° |
| 2026-04-25 18:58 | 53.80134 | 105.95642 | 37317 ft | 471 kts | 106° |
| 2026-04-25 18:59 | 53.75932 | 106.16605 | 37317 ft | 471 kts | 106° |
| 2026-04-25 19:00 | 53.72734 | 106.32311 | 37318 ft | 471 kts | 106° |
| 2026-04-25 19:01 | 53.69513 | 106.47993 | 37317 ft | 471 kts | 107° |
| 2026-04-25 19:01 | 53.67363 | 106.58439 | 37315 ft | 471 kts | 107° |
| 2026-04-25 19:02 | 53.64111 | 106.74089 | 37312 ft | 471 kts | 107° |
| 2026-04-25 19:03 | 53.61562 | 106.86261 | 37315 ft | 471 kts | 107° |
| 2026-04-25 19:03 | 53.58653 | 107.00105 | 37306 ft | 471 kts | 107° |
| 2026-04-25 19:04 | 53.55347 | 107.15730 | 37306 ft | 470 kts | 107° |
| 2026-04-25 19:05 | 53.50920 | 107.36381 | 37294 ft | 469 kts | 107° |
| 2026-04-25 19:06 | 53.48697 | 107.46694 | 37294 ft | 470 kts | 108° |
| 2026-04-25 19:06 | 53.45344 | 107.62140 | 37301 ft | 469 kts | 108° |
| 2026-04-25 19:07 | 53.41982 | 107.77567 | 37298 ft | 470 kts | 108° |
| 2026-04-25 19:08 | 53.38577 | 107.93035 | 37304 ft | 470 kts | 108° |
| 2026-04-25 19:09 | 53.34786 | 108.10089 | 37303 ft | 470 kts | 108° |
| 2026-04-25 19:10 | 53.30568 | 108.28919 | 37306 ft | 470 kts | 108° |
| 2026-04-25 19:10 | 53.28260 | 108.39148 | 37297 ft | 470 kts | 108° |
| 2026-04-25 19:11 | 53.25943 | 108.49370 | 37295 ft | 470 kts | 109° |
| 2026-04-25 19:11 | 53.23617 | 108.59578 | 37296 ft | 470 kts | 109° |
| 2026-04-25 19:12 | 53.21288 | 108.69767 | 37295 ft | 470 kts | 109° |
| 2026-04-25 19:12 | 53.18939 | 108.79940 | 37297 ft | 470 kts | 109° |
| 2026-04-25 19:13 | 53.16587 | 108.90102 | 37293 ft | 470 kts | 109° |
| 2026-04-25 19:13 | 53.14232 | 109.00248 | 37298 ft | 470 kts | 109° |
| 2026-04-25 19:14 | 53.11870 | 109.10391 | 37300 ft | 470 kts | 109° |
| 2026-04-25 19:14 | 53.09500 | 109.20522 | 37293 ft | 470 kts | 109° |
| 2026-04-25 19:15 | 53.07119 | 109.30630 | 37299 ft | 469 kts | 109° |
| 2026-04-25 19:15 | 53.04726 | 109.40723 | 37294 ft | 469 kts | 110° |
| 2026-04-25 19:16 | 53.02320 | 109.50799 | 37295 ft | 469 kts | 110° |
| 2026-04-25 19:16 | 53.00305 | 109.59225 | 37293 ft | 469 kts | 110° |
| 2026-04-25 19:17 | 52.97900 | 109.69283 | 37296 ft | 469 kts | 110° |
| 2026-04-25 19:17 | 52.95491 | 109.79322 | 37297 ft | 468 kts | 110° |
| 2026-04-25 19:18 | 52.93066 | 109.89334 | 37296 ft | 468 kts | 110° |
| 2026-04-25 19:18 | 52.90627 | 109.99348 | 37292 ft | 468 kts | 110° |
| 2026-04-25 19:19 | 52.88183 | 110.09330 | 37291 ft | 468 kts | 110° |
| 2026-04-25 19:19 | 52.85728 | 110.19313 | 37282 ft | 468 kts | 110° |
| 2026-04-25 19:20 | 52.83276 | 110.29282 | 37276 ft | 468 kts | 110° |
| 2026-04-25 19:20 | 52.80813 | 110.39240 | 37268 ft | 468 kts | 111° |
| 2026-04-25 19:21 | 52.78337 | 110.49179 | 37265 ft | 468 kts | 111° |
| 2026-04-25 19:21 | 52.74582 | 110.64142 | 37256 ft | 468 kts | 111° |
| 2026-04-25 19:22 | 52.72089 | 110.74050 | 37254 ft | 468 kts | 111° |
| 2026-04-25 19:23 | 52.68343 | 110.88886 | 37245 ft | 467 kts | 111° |
| 2026-04-25 19:23 | 52.64566 | 111.03701 | 37231 ft | 467 kts | 111° |
| 2026-04-25 19:24 | 52.62039 | 111.13552 | 37224 ft | 467 kts | 111° |
| 2026-04-25 19:25 | 52.56964 | 111.33218 | 37204 ft | 467 kts | 111° |
| 2026-04-25 19:25 | 52.54415 | 111.43024 | 37199 ft | 467 kts | 112° |
| 2026-04-25 19:26 | 52.51855 | 111.52814 | 37192 ft | 466 kts | 112° |
| 2026-04-25 19:26 | 52.49276 | 111.62585 | 37183 ft | 467 kts | 112° |
| 2026-04-25 19:27 | 52.47075 | 111.70746 | 37176 ft | 467 kts | 112° |
| 2026-04-25 19:27 | 52.44022 | 111.82050 | 37172 ft | 467 kts | 112° |
| 2026-04-25 19:28 | 52.41383 | 111.91834 | 37167 ft | 466 kts | 112° |
| 2026-04-25 19:28 | 52.38762 | 112.01552 | 37170 ft | 467 kts | 112° |
| 2026-04-25 19:29 | 52.36121 | 112.11257 | 37158 ft | 466 kts | 113° |
| 2026-04-25 19:29 | 52.33471 | 112.20932 | 37156 ft | 467 kts | 113° |
| 2026-04-25 19:30 | 52.30816 | 112.30612 | 37150 ft | 467 kts | 113° |
| 2026-04-25 19:30 | 52.28154 | 112.40283 | 37141 ft | 467 kts | 113° |
| 2026-04-25 19:31 | 52.25477 | 112.49936 | 37139 ft | 467 kts | 113° |
| 2026-04-25 19:31 | 52.22787 | 112.59572 | 37133 ft | 467 kts | 114° |
| 2026-04-25 19:32 | 52.20072 | 112.69187 | 37127 ft | 467 kts | 114° |
| 2026-04-25 19:32 | 52.17810 | 112.77168 | 37124 ft | 467 kts | 114° |
| 2026-04-25 19:33 | 52.14620 | 112.88389 | 37112 ft | 467 kts | 114° |
| 2026-04-25 19:33 | 52.11886 | 112.97980 | 37103 ft | 467 kts | 114° |
| 2026-04-25 19:34 | 52.09141 | 113.07566 | 37098 ft | 467 kts | 114° |
| 2026-04-25 19:34 | 52.06391 | 113.17139 | 37095 ft | 467 kts | 114° |
| 2026-04-25 19:35 | 52.03574 | 113.26654 | 37092 ft | 468 kts | 120° |
| 2026-04-25 19:35 | 51.99458 | 113.34865 | 37093 ft | 467 kts | 140° |
| 2026-04-25 19:36 | 51.94472 | 113.41604 | 37087 ft | 467 kts | 141° |
| 2026-04-25 19:36 | 51.89496 | 113.48381 | 37091 ft | 467 kts | 140° |
| 2026-04-25 19:37 | 51.84519 | 113.55146 | 37100 ft | 467 kts | 141° |
| 2026-04-25 19:37 | 51.79532 | 113.61878 | 37106 ft | 467 kts | 141° |
| 2026-04-25 19:38 | 51.74542 | 113.68576 | 37115 ft | 467 kts | 141° |
| 2026-04-25 19:38 | 51.69543 | 113.75274 | 37122 ft | 467 kts | 141° |
| 2026-04-25 19:39 | 51.64540 | 113.81965 | 37124 ft | 467 kts | 141° |
| 2026-04-25 19:39 | 51.59532 | 113.88640 | 37129 ft | 467 kts | 141° |
| 2026-04-25 19:40 | 51.54519 | 113.95294 | 37127 ft | 467 kts | 141° |
| 2026-04-25 19:40 | 51.49499 | 114.01941 | 37130 ft | 468 kts | 141° |
| 2026-04-25 19:41 | 51.44474 | 114.08558 | 37132 ft | 468 kts | 141° |
| 2026-04-25 19:41 | 51.41112 | 114.12978 | 37130 ft | 468 kts | 141° |
| 2026-04-25 19:42 | 51.34412 | 114.21762 | 37127 ft | 468 kts | 141° |
| 2026-04-25 19:42 | 51.29333 | 114.28392 | 37128 ft | 468 kts | 141° |
| 2026-04-25 19:43 | 51.24324 | 114.34912 | 37121 ft | 468 kts | 142° |
| 2026-04-25 19:43 | 51.19237 | 114.41504 | 37121 ft | 468 kts | 142° |
| 2026-04-25 19:44 | 51.14180 | 114.48038 | 37114 ft | 468 kts | 142° |
| 2026-04-25 19:44 | 51.09564 | 114.55315 | 37117 ft | 469 kts | 126° |
| 2026-04-25 19:45 | 51.06226 | 114.64205 | 37113 ft | 468 kts | 118° |
| 2026-04-25 19:45 | 51.03019 | 114.73216 | 37111 ft | 469 kts | 119° |
| 2026-04-25 19:46 | 50.99784 | 114.82219 | 37117 ft | 469 kts | 119° |
| 2026-04-25 19:46 | 50.96553 | 114.91209 | 37121 ft | 469 kts | 119° |
| 2026-04-25 19:47 | 50.93310 | 115.00200 | 37128 ft | 469 kts | 119° |
| 2026-04-25 19:47 | 50.90064 | 115.09178 | 37128 ft | 470 kts | 119° |
| 2026-04-25 19:48 | 50.86815 | 115.18148 | 37130 ft | 470 kts | 119° |
| 2026-04-25 19:48 | 50.83555 | 115.27106 | 37139 ft | 470 kts | 119° |
| 2026-04-25 19:49 | 50.81370 | 115.33082 | 37136 ft | 470 kts | 120° |
| 2026-04-25 19:49 | 50.77007 | 115.44969 | 37134 ft | 470 kts | 120° |
| 2026-04-25 19:50 | 50.72617 | 115.56897 | 37140 ft | 470 kts | 120° |
| 2026-04-25 19:51 | 50.69324 | 115.65811 | 37145 ft | 470 kts | 120° |
| 2026-04-25 19:51 | 50.66030 | 115.74696 | 37148 ft | 470 kts | 120° |
| 2026-04-25 19:52 | 50.62723 | 115.83577 | 37148 ft | 470 kts | 120° |
| 2026-04-25 19:52 | 50.59406 | 115.92439 | 37146 ft | 470 kts | 120° |
| 2026-04-25 19:53 | 50.56051 | 116.01263 | 37151 ft | 470 kts | 121° |
| 2026-04-25 19:53 | 50.52564 | 116.09960 | 37154 ft | 470 kts | 122° |
| 2026-04-25 19:54 | 50.49047 | 116.18607 | 37150 ft | 470 kts | 122° |
| 2026-04-25 19:54 | 50.45543 | 116.27271 | 37149 ft | 470 kts | 122° |
| 2026-04-25 19:55 | 50.42058 | 116.35953 | 37147 ft | 470 kts | 121° |
| 2026-04-25 19:55 | 50.38362 | 116.44395 | 37145 ft | 470 kts | 132° |
| 2026-04-25 19:56 | 50.33442 | 116.51217 | 37145 ft | 470 kts | 142° |
| 2026-04-25 19:56 | 50.28328 | 116.57578 | 37141 ft | 470 kts | 142° |
| 2026-04-25 19:57 | 50.23217 | 116.63962 | 37135 ft | 470 kts | 142° |
| 2026-04-25 19:57 | 50.18098 | 116.70333 | 37139 ft | 471 kts | 142° |
| 2026-04-25 19:57 | 50.15532 | 116.73510 | 36944 ft | 471 kts | 142° |
| 2026-04-25 19:58 | 50.12980 | 116.76652 | 36688 ft | 463 kts | 142° |
| 2026-04-25 19:58 | 50.10463 | 116.79729 | 36434 ft | 457 kts | 142° |
| 2026-04-25 19:58 | 50.07970 | 116.82767 | 36185 ft | 454 kts | 143° |
| 2026-04-25 19:58 | 50.05485 | 116.85793 | 35936 ft | 452 kts | 143° |
| 2026-04-25 19:59 | 50.03007 | 116.88810 | 35691 ft | 452 kts | 143° |
| 2026-04-25 19:59 | 50.00540 | 116.91815 | 35451 ft | 451 kts | 143° |
| 2026-04-25 19:59 | 49.98064 | 116.94829 | 35206 ft | 451 kts | 143° |
| 2026-04-25 19:59 | 49.95594 | 116.97832 | 34966 ft | 451 kts | 143° |
| 2026-04-25 20:00 | 49.93120 | 117.00834 | 34729 ft | 451 kts | 143° |
| 2026-04-25 20:00 | 49.91488 | 117.02810 | 34574 ft | 451 kts | 143° |
| 2026-04-25 20:00 | 49.88177 | 117.06813 | 34263 ft | 451 kts | 143° |
| 2026-04-25 20:00 | 49.85708 | 117.09795 | 34005 ft | 451 kts | 143° |
| 2026-04-25 20:01 | 49.80752 | 117.15763 | 33459 ft | 451 kts | 143° |
| 2026-04-25 20:01 | 49.78277 | 117.18745 | 33217 ft | 451 kts | 143° |
| 2026-04-25 20:01 | 49.75808 | 117.21718 | 33239 ft | 451 kts | 143° |
| 2026-04-25 20:02 | 49.70847 | 117.27679 | 33231 ft | 452 kts | 143° |
| 2026-04-25 20:02 | 49.65870 | 117.33633 | 33227 ft | 452 kts | 143° |
| 2026-04-25 20:03 | 49.61223 | 117.40156 | 33233 ft | 453 kts | 133° |
| 2026-04-25 20:03 | 49.57115 | 117.47498 | 33231 ft | 452 kts | 126° |
| 2026-04-25 20:04 | 49.53370 | 117.55280 | 33216 ft | 452 kts | 126° |
| 2026-04-25 20:04 | 49.49587 | 117.63093 | 33213 ft | 452 kts | 126° |
| 2026-04-25 20:05 | 49.45828 | 117.70842 | 33211 ft | 452 kts | 126° |
| 2026-04-25 20:05 | 49.42067 | 117.78578 | 33204 ft | 452 kts | 126° |
| 2026-04-25 20:06 | 49.38291 | 117.86313 | 33203 ft | 452 kts | 126° |
| 2026-04-25 20:06 | 49.34511 | 117.94031 | 33202 ft | 453 kts | 126° |
| 2026-04-25 20:07 | 49.30721 | 118.01732 | 33204 ft | 452 kts | 126° |
| 2026-04-25 20:07 | 49.27633 | 118.10056 | 33195 ft | 449 kts | 108° |
| 2026-04-25 20:08 | 49.26388 | 118.19303 | 33199 ft | 442 kts | 89° |
| 2026-04-25 20:08 | 49.26120 | 118.28700 | 33197 ft | 442 kts | 89° |
| 2026-04-25 20:09 | 49.25830 | 118.38110 | 33195 ft | 442 kts | 89° |
| 2026-04-25 20:09 | 49.25527 | 118.47506 | 33196 ft | 442 kts | 89° |
| 2026-04-25 20:10 | 49.25218 | 118.56914 | 33201 ft | 442 kts | 89° |
| 2026-04-25 20:10 | 49.24907 | 118.66309 | 33197 ft | 442 kts | 89° |
| 2026-04-25 20:11 | 49.24585 | 118.75704 | 33196 ft | 442 kts | 89° |
| 2026-04-25 20:11 | 49.24258 | 118.85103 | 33199 ft | 443 kts | 89° |
| 2026-04-25 20:12 | 49.23917 | 118.94513 | 33202 ft | 443 kts | 90° |
| 2026-04-25 20:12 | 49.23687 | 119.00810 | 33205 ft | 443 kts | 90° |
| 2026-04-25 20:13 | 49.23213 | 119.13390 | 33203 ft | 443 kts | 90° |
| 2026-04-25 20:13 | 49.22838 | 119.22811 | 33203 ft | 443 kts | 90° |
| 2026-04-25 20:14 | 49.22461 | 119.32227 | 33201 ft | 444 kts | 90° |
| 2026-04-25 20:14 | 49.22083 | 119.41650 | 33202 ft | 444 kts | 90° |
| 2026-04-25 20:15 | 49.21691 | 119.51071 | 33197 ft | 444 kts | 90° |
| 2026-04-25 20:15 | 49.21286 | 119.60498 | 33201 ft | 444 kts | 90° |
| 2026-04-25 20:16 | 49.20871 | 119.69918 | 33190 ft | 444 kts | 90° |
| 2026-04-25 20:16 | 49.20162 | 119.79299 | 33189 ft | 448 kts | 102° |
| 2026-04-25 20:17 | 49.17643 | 119.88042 | 33186 ft | 453 kts | 122° |
| 2026-04-25 20:17 | 49.14035 | 119.95952 | 33182 ft | 454 kts | 123° |
| 2026-04-25 20:18 | 49.10418 | 120.03868 | 33189 ft | 454 kts | 123° |
| 2026-04-25 20:18 | 49.06804 | 120.11772 | 33182 ft | 455 kts | 124° |
| 2026-04-25 20:19 | 49.03170 | 120.19678 | 33187 ft | 455 kts | 124° |
| 2026-04-25 20:19 | 48.99535 | 120.27573 | 33184 ft | 455 kts | 124° |
| 2026-04-25 20:20 | 48.95894 | 120.35455 | 33181 ft | 455 kts | 124° |
| 2026-04-25 20:20 | 48.92241 | 120.43316 | 33179 ft | 455 kts | 124° |
| 2026-04-25 20:21 | 48.88569 | 120.51206 | 33173 ft | 454 kts | 124° |
| 2026-04-25 20:21 | 48.84915 | 120.59041 | 33170 ft | 455 kts | 124° |
| 2026-04-25 20:22 | 48.82490 | 120.64222 | 33170 ft | 455 kts | 124° |
| 2026-04-25 20:22 | 48.78199 | 120.73373 | 33173 ft | 455 kts | 124° |
| 2026-04-25 20:23 | 48.74523 | 120.81187 | 33173 ft | 455 kts | 125° |
| 2026-04-25 20:23 | 48.70851 | 120.88983 | 33168 ft | 455 kts | 124° |
| 2026-04-25 20:24 | 48.67213 | 120.96807 | 33171 ft | 454 kts | 124° |
| 2026-04-25 20:24 | 48.63575 | 121.04630 | 33171 ft | 455 kts | 124° |
| 2026-04-25 20:25 | 48.59918 | 121.12426 | 33172 ft | 455 kts | 125° |
| 2026-04-25 20:25 | 48.56251 | 121.20209 | 33169 ft | 455 kts | 125° |
| 2026-04-25 20:26 | 48.52546 | 121.28041 | 33171 ft | 455 kts | 125° |
| 2026-04-25 20:26 | 48.48867 | 121.35807 | 33168 ft | 456 kts | 125° |
| 2026-04-25 20:27 | 48.45181 | 121.43579 | 33166 ft | 456 kts | 125° |
| 2026-04-25 20:27 | 48.41484 | 121.51335 | 33165 ft | 456 kts | 125° |
| 2026-04-25 20:28 | 48.37788 | 121.59080 | 33165 ft | 455 kts | 125° |
| 2026-04-25 20:28 | 48.34090 | 121.66813 | 33162 ft | 456 kts | 125° |
| 2026-04-25 20:29 | 48.30387 | 121.74534 | 33155 ft | 455 kts | 126° |
| 2026-04-25 20:29 | 48.26669 | 121.82240 | 33155 ft | 455 kts | 126° |
| 2026-04-25 20:30 | 48.22952 | 121.89928 | 33150 ft | 455 kts | 126° |
| 2026-04-25 20:30 | 48.19239 | 121.97607 | 33151 ft | 455 kts | 126° |
| 2026-04-25 20:31 | 48.15516 | 122.05281 | 33144 ft | 455 kts | 126° |
| 2026-04-25 20:31 | 48.11788 | 122.12930 | 33140 ft | 455 kts | 126° |
| 2026-04-25 20:32 | 48.08046 | 122.20564 | 33138 ft | 455 kts | 126° |
| 2026-04-25 20:32 | 48.04311 | 122.28180 | 33135 ft | 454 kts | 126° |
| 2026-04-25 20:33 | 48.00553 | 122.35849 | 33127 ft | 454 kts | 126° |
| 2026-04-25 20:33 | 47.97450 | 122.42162 | 33123 ft | 454 kts | 127° |
| 2026-04-25 20:34 | 47.93079 | 122.51031 | 33116 ft | 454 kts | 127° |
| 2026-04-25 20:34 | 47.89330 | 122.58593 | 33112 ft | 453 kts | 127° |
| 2026-04-25 20:35 | 47.85577 | 122.66134 | 33112 ft | 453 kts | 127° |
| 2026-04-25 20:35 | 47.81824 | 122.73657 | 33106 ft | 452 kts | 127° |
| 2026-04-25 20:36 | 47.78090 | 122.81190 | 33101 ft | 452 kts | 126° |
| 2026-04-25 20:36 | 47.74467 | 122.88828 | 33098 ft | 452 kts | 125° |
| 2026-04-25 20:37 | 47.70875 | 122.96491 | 33093 ft | 452 kts | 126° |
| 2026-04-25 20:37 | 47.67255 | 123.04102 | 33088 ft | 451 kts | 126° |
| 2026-04-25 20:38 | 47.63615 | 123.11675 | 33082 ft | 451 kts | 126° |
| 2026-04-25 20:38 | 47.59966 | 123.19240 | 33081 ft | 450 kts | 126° |
| 2026-04-25 20:39 | 47.56325 | 123.26783 | 33082 ft | 450 kts | 127° |
| 2026-04-25 20:39 | 47.53272 | 123.33075 | 33075 ft | 449 kts | 127° |
| 2026-04-25 20:40 | 47.49013 | 123.41845 | 33074 ft | 449 kts | 127° |
| 2026-04-25 20:40 | 47.45369 | 123.49340 | 33070 ft | 448 kts | 127° |
| 2026-04-25 20:41 | 47.41729 | 123.56812 | 33069 ft | 448 kts | 127° |
| 2026-04-25 20:41 | 47.38085 | 123.64271 | 33066 ft | 448 kts | 127° |
| 2026-04-25 20:42 | 47.34433 | 123.71708 | 33068 ft | 447 kts | 128° |
| 2026-04-25 20:42 | 47.30782 | 123.79128 | 33062 ft | 447 kts | 128° |
| 2026-04-25 20:43 | 47.27130 | 123.86534 | 33052 ft | 447 kts | 128° |
| 2026-04-25 20:43 | 47.23304 | 123.93717 | 33051 ft | 444 kts | 137° |
| 2026-04-25 20:44 | 47.18928 | 124.00204 | 33049 ft | 444 kts | 137° |
| 2026-04-25 20:44 | 47.14621 | 124.06621 | 33047 ft | 444 kts | 137° |
| 2026-04-25 20:45 | 47.10256 | 124.13110 | 33043 ft | 444 kts | 138° |
| 2026-04-25 20:45 | 47.05920 | 124.19541 | 33037 ft | 443 kts | 138° |
| 2026-04-25 20:46 | 47.01581 | 124.25965 | 33046 ft | 443 kts | 138° |
| 2026-04-25 20:46 | 46.97233 | 124.32374 | 33039 ft | 443 kts | 139° |
| 2026-04-25 20:47 | 46.92884 | 124.38759 | 33035 ft | 443 kts | 139° |
| 2026-04-25 20:47 | 46.88535 | 124.45140 | 32951 ft | 444 kts | 139° |
| 2026-04-25 20:48 | 46.86374 | 124.48307 | 32678 ft | 440 kts | 139° |
| 2026-04-25 20:48 | 46.84207 | 124.51475 | 32408 ft | 438 kts | 140° |
| 2026-04-25 20:48 | 46.82061 | 124.54617 | 32137 ft | 435 kts | 140° |
| 2026-04-25 20:48 | 46.79930 | 124.57736 | 31880 ft | 433 kts | 140° |
| 2026-04-25 20:49 | 46.77808 | 124.60831 | 31621 ft | 430 kts | 140° |
| 2026-04-25 20:49 | 46.75689 | 124.63909 | 31369 ft | 428 kts | 140° |
| 2026-04-25 20:49 | 46.73586 | 124.66963 | 31108 ft | 426 kts | 141° |
| 2026-04-25 20:49 | 46.71491 | 124.70002 | 30865 ft | 424 kts | 141° |
| 2026-04-25 20:50 | 46.69409 | 124.73018 | 30611 ft | 421 kts | 141° |
| 2026-04-25 20:50 | 46.67336 | 124.76018 | 30365 ft | 419 kts | 141° |
| 2026-04-25 20:50 | 46.65270 | 124.79008 | 30114 ft | 417 kts | 142° |
| 2026-04-25 20:50 | 46.63222 | 124.81973 | 29845 ft | 415 kts | 142° |
| 2026-04-25 20:51 | 46.61184 | 124.84922 | 29523 ft | 411 kts | 142° |
| 2026-04-25 20:51 | 46.59164 | 124.87839 | 29070 ft | 407 kts | 142° |
| 2026-04-25 20:51 | 46.57165 | 124.90719 | 28624 ft | 403 kts | 142° |
| 2026-04-25 20:51 | 46.55180 | 124.93573 | 28184 ft | 400 kts | 142° |
| 2026-04-25 20:52 | 46.53207 | 124.96405 | 27751 ft | 397 kts | 142° |
| 2026-04-25 20:52 | 46.52543 | 124.97357 | 27608 ft | 396 kts | 142° |
| 2026-04-25 20:52 | 46.49299 | 125.02002 | 26885 ft | 392 kts | 142° |
| 2026-04-25 20:52 | 46.47340 | 125.04809 | 26453 ft | 389 kts | 142° |
| 2026-04-25 20:53 | 46.45419 | 125.07558 | 26001 ft | 387 kts | 142° |
| 2026-04-25 20:53 | 46.43507 | 125.10289 | 25568 ft | 385 kts | 142° |
| 2026-04-25 20:53 | 46.41604 | 125.13007 | 25117 ft | 383 kts | 142° |
| 2026-04-25 20:53 | 46.39710 | 125.15710 | 24661 ft | 381 kts | 142° |
| 2026-04-25 20:54 | 46.37822 | 125.18401 | 24203 ft | 380 kts | 142° |
| 2026-04-25 20:54 | 46.35939 | 125.21080 | 23735 ft | 379 kts | 142° |
| 2026-04-25 20:54 | 46.34059 | 125.23755 | 23217 ft | 378 kts | 142° |
| 2026-04-25 20:54 | 46.32191 | 125.26412 | 22746 ft | 376 kts | 142° |
| 2026-04-25 20:55 | 46.30331 | 125.29051 | 22281 ft | 373 kts | 143° |
| 2026-04-25 20:55 | 46.29107 | 125.30786 | 22019 ft | 370 kts | 143° |
| 2026-04-25 20:55 | 46.26660 | 125.34254 | 21465 ft | 367 kts | 142° |
| 2026-04-25 20:55 | 46.24857 | 125.36848 | 21063 ft | 364 kts | 142° |
| 2026-04-25 20:56 | 46.23681 | 125.38563 | 20792 ft | 363 kts | 141° |
| 2026-04-25 20:56 | 46.21917 | 125.41152 | 20393 ft | 361 kts | 141° |
| 2026-04-25 20:56 | 46.20166 | 125.43729 | 20005 ft | 359 kts | 141° |
| 2026-04-25 20:56 | 46.18422 | 125.46289 | 19604 ft | 357 kts | 141° |
| 2026-04-25 20:57 | 46.16681 | 125.48834 | 19215 ft | 355 kts | 141° |
| 2026-04-25 20:57 | 46.14945 | 125.51361 | 18825 ft | 354 kts | 140° |
| 2026-04-25 20:57 | 46.13209 | 125.53879 | 18433 ft | 353 kts | 140° |
| 2026-04-25 20:57 | 46.11481 | 125.56385 | 18028 ft | 352 kts | 140° |
| 2026-04-25 20:58 | 46.09735 | 125.58918 | 17653 ft | 352 kts | 140° |
| 2026-04-25 20:58 | 46.08000 | 125.61426 | 17527 ft | 354 kts | 140° |
| 2026-04-25 20:58 | 46.06236 | 125.63966 | 16802 ft | 362 kts | 140° |
| 2026-04-25 20:58 | 46.04468 | 125.66511 | 16476 ft | 357 kts | 139° |
| 2026-04-25 20:59 | 46.02716 | 125.69038 | 16105 ft | 355 kts | 139° |
| 2026-04-25 20:59 | 46.00981 | 125.71543 | 15736 ft | 353 kts | 139° |
| 2026-04-25 20:59 | 45.99254 | 125.74039 | 15358 ft | 351 kts | 139° |
| 2026-04-25 20:59 | 45.97521 | 125.76478 | 14988 ft | 348 kts | 141° |
| 2026-04-25 21:00 | 45.95721 | 125.78778 | 14625 ft | 345 kts | 144° |
| 2026-04-25 21:00 | 45.94507 | 125.80246 | 14374 ft | 343 kts | 145° |
| 2026-04-25 21:00 | 45.90224 | 125.85259 | 13602 ft | 337 kts | 145° |
| 2026-04-25 21:01 | 45.88417 | 125.87382 | 13231 ft | 335 kts | 144° |
| 2026-04-25 21:01 | 45.86628 | 125.89507 | 12871 ft | 332 kts | 144° |
| 2026-04-25 21:01 | 45.84863 | 125.91623 | 12505 ft | 330 kts | 143° |
| 2026-04-25 21:01 | 45.83113 | 125.93728 | 12136 ft | 327 kts | 143° |
| 2026-04-25 21:02 | 45.81377 | 125.95818 | 11775 ft | 325 kts | 143° |
| 2026-04-25 21:02 | 45.79657 | 125.97889 | 11414 ft | 322 kts | 143° |
| 2026-04-25 21:02 | 45.77946 | 125.99947 | 11039 ft | 320 kts | 142° |
| 2026-04-25 21:02 | 45.76388 | 126.02224 | 10651 ft | 321 kts | 131° |
| 2026-04-25 21:03 | 45.74981 | 126.04680 | 10420 ft | 314 kts | 131° |
| 2026-04-25 21:03 | 45.73622 | 126.07055 | 10298 ft | 303 kts | 131° |
| 2026-04-25 21:03 | 45.72396 | 126.09449 | 10156 ft | 295 kts | 117° |
| 2026-04-25 21:03 | 45.71833 | 126.12204 | 10010 ft | 285 kts | 92° |
| 2026-04-25 21:04 | 45.72036 | 126.14955 | 9758 ft | 277 kts | 70° |
| 2026-04-25 21:04 | 45.72945 | 126.17357 | 9213 ft | 276 kts | 45° |
| 2026-04-25 21:04 | 45.74363 | 126.19174 | 8752 ft | 274 kts | 34° |
| 2026-04-25 21:04 | 45.75846 | 126.20890 | 8299 ft | 275 kts | 35° |
| 2026-04-25 21:05 | 45.77328 | 126.22626 | 7853 ft | 276 kts | 36° |
| 2026-04-25 21:05 | 45.78816 | 126.24377 | 7398 ft | 277 kts | 36° |
| 2026-04-25 21:05 | 45.80299 | 126.26137 | 6933 ft | 278 kts | 38° |
| 2026-04-25 21:05 | 45.81459 | 126.28360 | 6483 ft | 283 kts | 65° |
| 2026-04-25 21:06 | 45.81799 | 126.31136 | 5994 ft | 286 kts | 94° |
| 2026-04-25 21:06 | 45.81216 | 126.33838 | 5511 ft | 286 kts | 122° |
| 2026-04-25 21:06 | 45.80006 | 126.36077 | 5041 ft | 284 kts | 131° |
| 2026-04-25 21:06 | 45.79151 | 126.37548 | 4736 ft | 284 kts | 131° |
| 2026-04-25 21:07 | 45.77482 | 126.40391 | 4121 ft | 277 kts | 129° |
| 2026-04-25 21:07 | 45.76563 | 126.42750 | 3935 ft | 261 kts | 105° |
| 2026-04-25 21:07 | 45.76535 | 126.45244 | 3739 ft | 245 kts | 73° |
| 2026-04-25 21:07 | 45.77357 | 126.47260 | 3567 ft | 231 kts | 40° |
| 2026-04-25 21:08 | 45.78726 | 126.48230 | 3433 ft | 215 kts | 5° |
| 2026-04-25 21:08 | 45.80127 | 126.47904 | 3329 ft | 199 kts | 328° |
| 2026-04-25 21:08 | 45.81016 | 126.46512 | 3222 ft | 188 kts | 289° |
| 2026-04-25 21:08 | 45.81058 | 126.44700 | 3120 ft | 185 kts | 249° |
| 2026-04-25 21:09 | 45.79135 | 126.42472 | 2909 ft | 189 kts | 187° |
| 2026-04-25 21:09 | 45.77828 | 126.42286 | 2793 ft | 189 kts | 196° |
| 2026-04-25 21:09 | 45.76625 | 126.41546 | 2693 ft | 187 kts | 212° |
| 2026-04-25 21:10 | 45.75552 | 126.40490 | 2599 ft | 187 kts | 218° |
| 2026-04-25 21:10 | 45.74533 | 126.39346 | 2500 ft | 186 kts | 220° |
| 2026-04-25 21:10 | 45.73532 | 126.38180 | 2405 ft | 186 kts | 220° |
| 2026-04-25 21:10 | 45.72535 | 126.37009 | 2289 ft | 185 kts | 220° |
| 2026-04-25 21:11 | 45.71542 | 126.35840 | 2200 ft | 185 kts | 221° |
| 2026-04-25 21:11 | 45.70584 | 126.34712 | 2134 ft | 172 kts | 221° |
| 2026-04-25 21:11 | 45.69693 | 126.33663 | 2041 ft | 159 kts | 221° |
| 2026-04-25 21:11 | 45.68875 | 126.32701 | 1890 ft | 143 kts | 221° |
| 2026-04-25 21:12 | 45.68137 | 126.31833 | 1710 ft | 134 kts | 222° |
| 2026-04-25 21:12 | 45.67433 | 126.30997 | 1524 ft | 130 kts | 222° |
| 2026-04-25 21:12 | 45.66738 | 126.30181 | 1348 ft | 129 kts | 221° |
| 2026-04-25 21:12 | 45.66271 | 126.29632 | 1223 ft | 129 kts | 220° |
| 2026-04-25 21:13 | 45.65359 | 126.28558 | 985 ft | 128 kts | 219° |
| 2026-04-25 21:13 | 45.64674 | 126.27755 | 815 ft | 128 kts | 218° |
| 2026-04-25 21:13 | 45.63992 | 126.26947 | 641 ft | 127 kts | 218° |
| 2026-04-25 21:13 | 45.63308 | 126.26151 | 482 ft | 126 kts | 218° |
| 2026-04-25 21:14 | 45.62682 | 126.25418 | 453 ft | 100 kts | 219° |
| 2026-04-25 21:14 | 45.62276 | 126.24943 | 455 ft | 51 kts | 219° |
| 2026-04-25 21:14 | 45.62086 | 126.24713 | 458 ft | 24 kts | 226° |
| 2026-04-25 21:14 | 45.62003 | 126.24539 | 456 ft | 18 kts | 243° |
| 2026-04-25 21:15 | 45.61967 | 126.24423 | 459 ft | 7 kts | 247° |
| 2026-04-25 21:15 | 45.61964 | 126.24414 | 459 ft | 0 kts | 247° |
| 2026-04-25 21:16 | 45.61963 | 126.24411 | 460 ft | 2 kts | 247° |
| 2026-04-25 21:16 | 45.61951 | 126.24369 | 460 ft | 7 kts | 246° |
| 2026-04-25 21:16 | 45.61927 | 126.24286 | 461 ft | 10 kts | 247° |
| 2026-04-25 21:17 | 45.61893 | 126.24188 | 461 ft | 12 kts | 236° |
| 2026-04-25 21:17 | 45.61845 | 126.24119 | 459 ft | 8 kts | 229° |
| 2026-04-25 21:17 | 45.61854 | 126.24058 | 460 ft | 8 kts | 315° |
| 2026-04-25 21:17 | 45.61897 | 126.24001 | 460 ft | 9 kts | 316° |
| 2026-04-25 21:18 | 45.61943 | 126.23926 | 462 ft | 11 kts | 309° |
| 2026-04-25 21:18 | 45.61970 | 126.23879 | 461 ft | 2 kts | 308° |
| 2026-04-25 21:18 | 45.61976 | 126.23856 | 462 ft | 3 kts | 279° |
| 2026-04-25 21:18 | 45.61965 | 126.23828 | 462 ft | 4 kts | 228° |
| 2026-04-25 21:19 | 45.61954 | 126.23815 | 461 ft | 2 kts | 219° |
| 2026-04-25 21:19 | 45.61944 | 126.23803 | 463 ft | 1 kts | 219° |
| 2026-04-25 21:19 | 45.61941 | 126.23800 | 463 ft | 0 kts | 219° |